sensor_id;sensor_type;location;lat;lon;timestamp;P1;durP1;ratioP1;P2;durP2;ratioP2
33926;SDS011;20485;50.992;5.550;2023-03-01T00:01:58;15.45;;;8.20;;
33926;SDS011;20485;50.992;5.550;2023-03-01T00:04:24;15.20;;;7.22;;
33926;SDS011;20485;50.992;5.550;2023-03-01T00:06:49;12.32;;;8.02;;
33926;SDS011;20485;50.992;5.550;2023-03-01T00:09:15;14.88;;;8.23;;
33926;SDS011;20485;50.992;5.550;2023-03-01T00:11:41;13.57;;;7.88;;
33926;SDS011;20485;50.992;5.550;2023-03-01T00:14:07;11.73;;;7.63;;
33926;SDS011;20485;50.992;5.550;2023-03-01T00:16:37;19.05;;;7.63;;
33926;SDS011;20485;50.992;5.550;2023-03-01T00:19:04;15.88;;;7.65;;
33926;SDS011;20485;50.992;5.550;2023-03-01T00:21:32;13.85;;;7.68;;
33926;SDS011;20485;50.992;5.550;2023-03-01T00:23:58;17.33;;;7.78;;
33926;SDS011;20485;50.992;5.550;2023-03-01T00:26:24;15.18;;;7.80;;
33926;SDS011;20485;50.992;5.550;2023-03-01T00:28:50;16.45;;;8.00;;
33926;SDS011;20485;50.992;5.550;2023-03-01T00:31:17;15.73;;;8.05;;
33926;SDS011;20485;50.992;5.550;2023-03-01T00:33:45;17.98;;;7.95;;
33926;SDS011;20485;50.992;5.550;2023-03-01T00:36:12;16.48;;;8.23;;
33926;SDS011;20485;50.992;5.550;2023-03-01T00:38:41;13.48;;;8.63;;
33926;SDS011;20485;50.992;5.550;2023-03-01T00:41:11;14.60;;;8.02;;
33926;SDS011;20485;50.992;5.550;2023-03-01T00:43:39;15.85;;;8.82;;
33926;SDS011;20485;50.992;5.550;2023-03-01T00:46:06;15.98;;;8.43;;
33926;SDS011;20485;50.992;5.550;2023-03-01T00:48:33;18.33;;;8.23;;
33926;SDS011;20485;50.992;5.550;2023-03-01T00:51:07;14.70;;;8.35;;
33926;SDS011;20485;50.992;5.550;2023-03-01T00:53:40;17.35;;;8.48;;
33926;SDS011;20485;50.992;5.550;2023-03-01T00:56:07;12.38;;;6.72;;
33926;SDS011;20485;50.992;5.550;2023-03-01T00:58:34;15.98;;;8.88;;
33926;SDS011;20485;50.992;5.550;2023-03-01T01:01:00;15.40;;;7.55;;
33926;SDS011;20485;50.992;5.550;2023-03-01T01:03:32;13.85;;;7.95;;
33926;SDS011;20485;50.992;5.550;2023-03-01T01:05:57;13.77;;;7.70;;
33926;SDS011;20485;50.992;5.550;2023-03-01T01:08:23;15.43;;;8.65;;
33926;SDS011;20485;50.992;5.550;2023-03-01T01:10:49;18.65;;;8.07;;
33926;SDS011;20485;50.992;5.550;2023-03-01T01:13:14;11.88;;;7.55;;
33926;SDS011;20485;50.992;5.550;2023-03-01T01:15:40;11.55;;;7.47;;
33926;SDS011;20485;50.992;5.550;2023-03-01T01:18:06;15.38;;;7.50;;
33926;SDS011;20485;50.992;5.550;2023-03-01T01:20:32;16.05;;;8.40;;
33926;SDS011;20485;50.992;5.550;2023-03-01T01:23:00;13.57;;;8.13;;
33926;SDS011;20485;50.992;5.550;2023-03-01T01:25:26;14.40;;;7.82;;
33926;SDS011;20485;50.992;5.550;2023-03-01T01:27:51;19.80;;;9.23;;
33926;SDS011;20485;50.992;5.550;2023-03-01T01:30:17;16.10;;;9.00;;
33926;SDS011;20485;50.992;5.550;2023-03-01T01:32:43;14.65;;;8.57;;
33926;SDS011;20485;50.992;5.550;2023-03-01T01:35:09;19.48;;;8.30;;
33926;SDS011;20485;50.992;5.550;2023-03-01T01:37:34;15.30;;;8.35;;
33926;SDS011;20485;50.992;5.550;2023-03-01T01:40:00;16.50;;;8.27;;
33926;SDS011;20485;50.992;5.550;2023-03-01T01:42:29;12.55;;;8.40;;
33926;SDS011;20485;50.992;5.550;2023-03-01T01:47:52;14.77;;;8.60;;
33926;SDS011;20485;50.992;5.550;2023-03-01T01:50:18;12.32;;;7.53;;
33926;SDS011;20485;50.992;5.550;2023-03-01T01:52:44;13.05;;;7.65;;
33926;SDS011;20485;50.992;5.550;2023-03-01T01:55:12;12.52;;;8.07;;
33926;SDS011;20485;50.992;5.550;2023-03-01T01:57:43;15.88;;;8.50;;
33926;SDS011;20485;50.992;5.550;2023-03-01T02:00:14;12.68;;;8.32;;
33926;SDS011;20485;50.992;5.550;2023-03-01T02:02:42;13.90;;;8.48;;
33926;SDS011;20485;50.992;5.550;2023-03-01T02:05:15;15.45;;;8.82;;
33926;SDS011;20485;50.992;5.550;2023-03-01T02:08:01;16.50;;;7.97;;
33926;SDS011;20485;50.992;5.550;2023-03-01T02:10:27;17.38;;;10.27;;
33926;SDS011;20485;50.992;5.550;2023-03-01T02:12:54;18.67;;;10.18;;
33926;SDS011;20485;50.992;5.550;2023-03-01T02:15:21;18.65;;;9.90;;
33926;SDS011;20485;50.992;5.550;2023-03-01T02:17:48;19.42;;;10.18;;
33926;SDS011;20485;50.992;5.550;2023-03-01T02:20:28;16.17;;;9.10;;
33926;SDS011;20485;50.992;5.550;2023-03-01T02:23:00;16.63;;;9.32;;
33926;SDS011;20485;50.992;5.550;2023-03-01T02:25:31;15.63;;;9.38;;
33926;SDS011;20485;50.992;5.550;2023-03-01T02:30:56;17.73;;;9.63;;
33926;SDS011;20485;50.992;5.550;2023-03-01T02:33:41;17.85;;;8.32;;
33926;SDS011;20485;50.992;5.550;2023-03-01T02:36:09;13.98;;;8.65;;
33926;SDS011;20485;50.992;5.550;2023-03-01T02:38:43;18.13;;;9.77;;
33926;SDS011;20485;50.992;5.550;2023-03-01T02:41:10;17.83;;;8.30;;
33926;SDS011;20485;50.992;5.550;2023-03-01T02:43:38;16.40;;;8.55;;
33926;SDS011;20485;50.992;5.550;2023-03-01T02:46:08;21.15;;;9.73;;
33926;SDS011;20485;50.992;5.550;2023-03-01T02:48:48;14.95;;;9.32;;
33926;SDS011;20485;50.992;5.550;2023-03-01T02:51:24;18.52;;;9.20;;
33926;SDS011;20485;50.992;5.550;2023-03-01T02:54:08;18.88;;;10.07;;
33926;SDS011;20485;50.992;5.550;2023-03-01T02:56:51;18.02;;;9.77;;
33926;SDS011;20485;50.992;5.550;2023-03-01T02:59:18;16.45;;;9.18;;
33926;SDS011;20485;50.992;5.550;2023-03-01T03:01:47;17.65;;;9.77;;
33926;SDS011;20485;50.992;5.550;2023-03-01T03:04:14;15.15;;;9.15;;
33926;SDS011;20485;50.992;5.550;2023-03-01T03:06:43;18.95;;;9.75;;
33926;SDS011;20485;50.992;5.550;2023-03-01T03:09:09;16.45;;;9.90;;
33926;SDS011;20485;50.992;5.550;2023-03-01T03:11:35;20.52;;;9.85;;
33926;SDS011;20485;50.992;5.550;2023-03-01T03:14:02;20.75;;;9.85;;
33926;SDS011;20485;50.992;5.550;2023-03-01T03:16:28;15.60;;;9.73;;
33926;SDS011;20485;50.992;5.550;2023-03-01T03:18:55;20.67;;;9.82;;
33926;SDS011;20485;50.992;5.550;2023-03-01T03:21:29;19.73;;;9.90;;
33926;SDS011;20485;50.992;5.550;2023-03-01T03:23:56;19.20;;;9.77;;
33926;SDS011;20485;50.992;5.550;2023-03-01T03:26:22;21.13;;;10.25;;
33926;SDS011;20485;50.992;5.550;2023-03-01T03:28:48;16.67;;;8.85;;
33926;SDS011;20485;50.992;5.550;2023-03-01T03:31:14;15.73;;;9.43;;
33926;SDS011;20485;50.992;5.550;2023-03-01T03:33:40;18.60;;;9.73;;
33926;SDS011;20485;50.992;5.550;2023-03-01T03:36:05;21.90;;;10.27;;
33926;SDS011;20485;50.992;5.550;2023-03-01T03:38:31;21.52;;;10.15;;
33926;SDS011;20485;50.992;5.550;2023-03-01T03:41:04;21.83;;;9.85;;
33926;SDS011;20485;50.992;5.550;2023-03-01T03:43:33;16.10;;;9.63;;
33926;SDS011;20485;50.992;5.550;2023-03-01T03:45:59;15.50;;;9.43;;
33926;SDS011;20485;50.992;5.550;2023-03-01T03:48:26;17.73;;;9.60;;
33926;SDS011;20485;50.992;5.550;2023-03-01T03:50:53;18.88;;;10.60;;
33926;SDS011;20485;50.992;5.550;2023-03-01T03:53:20;18.15;;;10.13;;
33926;SDS011;20485;50.992;5.550;2023-03-01T03:55:48;20.17;;;10.75;;
33926;SDS011;20485;50.992;5.550;2023-03-01T03:58:14;23.17;;;10.95;;
33926;SDS011;20485;50.992;5.550;2023-03-01T04:00:42;16.33;;;10.20;;
33926;SDS011;20485;50.992;5.550;2023-03-01T04:03:09;19.70;;;10.63;;
33926;SDS011;20485;50.992;5.550;2023-03-01T04:05:37;19.25;;;10.88;;
33926;SDS011;20485;50.992;5.550;2023-03-01T04:08:04;20.20;;;11.40;;
33926;SDS011;20485;50.992;5.550;2023-03-01T04:10:37;18.73;;;10.82;;
33926;SDS011;20485;50.992;5.550;2023-03-01T04:13:06;23.50;;;10.60;;
33926;SDS011;20485;50.992;5.550;2023-03-01T04:15:34;21.05;;;10.88;;
33926;SDS011;20485;50.992;5.550;2023-03-01T04:18:00;20.95;;;11.50;;
33926;SDS011;20485;50.992;5.550;2023-03-01T04:20:27;19.70;;;10.77;;
33926;SDS011;20485;50.992;5.550;2023-03-01T04:22:59;18.65;;;10.65;;
33926;SDS011;20485;50.992;5.550;2023-03-01T04:25:52;19.63;;;10.77;;
33926;SDS011;20485;50.992;5.550;2023-03-01T04:28:23;17.58;;;11.10;;
33926;SDS011;20485;50.992;5.550;2023-03-01T04:30:54;19.58;;;11.00;;
33926;SDS011;20485;50.992;5.550;2023-03-01T04:33:21;24.52;;;11.70;;
33926;SDS011;20485;50.992;5.550;2023-03-01T04:35:49;19.85;;;11.20;;
33926;SDS011;20485;50.992;5.550;2023-03-01T04:38:16;19.55;;;11.23;;
33926;SDS011;20485;50.992;5.550;2023-03-01T04:40:42;21.05;;;12.05;;
33926;SDS011;20485;50.992;5.550;2023-03-01T04:43:08;19.02;;;11.15;;
33926;SDS011;20485;50.992;5.550;2023-03-01T04:45:35;22.75;;;10.18;;
33926;SDS011;20485;50.992;5.550;2023-03-01T04:48:01;24.80;;;11.38;;
33926;SDS011;20485;50.992;5.550;2023-03-01T04:50:28;17.52;;;11.02;;
33926;SDS011;20485;50.992;5.550;2023-03-01T04:52:54;23.17;;;11.88;;
33926;SDS011;20485;50.992;5.550;2023-03-01T04:55:23;26.38;;;12.85;;
33926;SDS011;20485;50.992;5.550;2023-03-01T04:57:53;21.77;;;11.52;;
33926;SDS011;20485;50.992;5.550;2023-03-01T05:00:19;26.65;;;13.05;;
33926;SDS011;20485;50.992;5.550;2023-03-01T05:02:55;25.05;;;11.85;;
33926;SDS011;20485;50.992;5.550;2023-03-01T05:05:27;23.35;;;12.30;;
33926;SDS011;20485;50.992;5.550;2023-03-01T05:07:58;21.27;;;12.07;;
33926;SDS011;20485;50.992;5.550;2023-03-01T05:10:27;28.63;;;12.15;;
33926;SDS011;20485;50.992;5.550;2023-03-01T05:12:57;26.88;;;12.25;;
33926;SDS011;20485;50.992;5.550;2023-03-01T05:15:27;22.10;;;12.65;;
33926;SDS011;20485;50.992;5.550;2023-03-01T05:17:56;20.27;;;11.43;;
33926;SDS011;20485;50.992;5.550;2023-03-01T05:20:29;23.75;;;12.48;;
33926;SDS011;20485;50.992;5.550;2023-03-01T05:22:56;26.70;;;12.75;;
33926;SDS011;20485;50.992;5.550;2023-03-01T05:25:24;24.50;;;13.07;;
33926;SDS011;20485;50.992;5.550;2023-03-01T05:27:50;27.25;;;12.40;;
33926;SDS011;20485;50.992;5.550;2023-03-01T05:30:18;24.67;;;12.52;;
33926;SDS011;20485;50.992;5.550;2023-03-01T05:32:45;30.60;;;13.27;;
33926;SDS011;20485;50.992;5.550;2023-03-01T05:35:12;24.02;;;12.27;;
33926;SDS011;20485;50.992;5.550;2023-03-01T05:37:40;31.17;;;14.60;;
33926;SDS011;20485;50.992;5.550;2023-03-01T05:40:10;27.23;;;13.63;;
33926;SDS011;20485;50.992;5.550;2023-03-01T05:42:43;24.13;;;12.95;;
33926;SDS011;20485;50.992;5.550;2023-03-01T05:45:11;34.33;;;15.25;;
33926;SDS011;20485;50.992;5.550;2023-03-01T05:47:40;28.38;;;15.18;;
33926;SDS011;20485;50.992;5.550;2023-03-01T05:50:12;27.35;;;15.43;;
33926;SDS011;20485;50.992;5.550;2023-03-01T05:52:39;26.73;;;14.60;;
33926;SDS011;20485;50.992;5.550;2023-03-01T05:55:05;30.23;;;14.85;;
33926;SDS011;20485;50.992;5.550;2023-03-01T05:57:31;21.33;;;12.70;;
33926;SDS011;20485;50.992;5.550;2023-03-01T05:59:57;25.80;;;13.85;;
33926;SDS011;20485;50.992;5.550;2023-03-01T06:02:22;25.15;;;13.10;;
33926;SDS011;20485;50.992;5.550;2023-03-01T06:04:48;27.17;;;13.43;;
33926;SDS011;20485;50.992;5.550;2023-03-01T06:07:14;33.25;;;13.98;;
33926;SDS011;20485;50.992;5.550;2023-03-01T06:09:39;27.60;;;13.88;;
33926;SDS011;20485;50.992;5.550;2023-03-01T06:12:05;28.42;;;13.90;;
33926;SDS011;20485;50.992;5.550;2023-03-01T06:14:31;24.08;;;13.07;;
33926;SDS011;20485;50.992;5.550;2023-03-01T06:16:57;28.00;;;14.05;;
33926;SDS011;20485;50.992;5.550;2023-03-01T06:19:23;25.67;;;12.75;;
33926;SDS011;20485;50.992;5.550;2023-03-01T06:21:48;24.77;;;14.00;;
33926;SDS011;20485;50.992;5.550;2023-03-01T06:24:14;22.35;;;13.45;;
33926;SDS011;20485;50.992;5.550;2023-03-01T06:26:40;22.83;;;12.95;;
33926;SDS011;20485;50.992;5.550;2023-03-01T06:29:06;26.33;;;14.77;;
33926;SDS011;20485;50.992;5.550;2023-03-01T06:31:33;28.60;;;15.32;;
33926;SDS011;20485;50.992;5.550;2023-03-01T06:33:59;26.13;;;13.90;;
33926;SDS011;20485;50.992;5.550;2023-03-01T06:36:25;31.20;;;15.35;;
33926;SDS011;20485;50.992;5.550;2023-03-01T06:38:50;31.67;;;15.45;;
33926;SDS011;20485;50.992;5.550;2023-03-01T06:41:16;25.98;;;14.98;;
33926;SDS011;20485;50.992;5.550;2023-03-01T06:43:41;25.67;;;13.40;;
33926;SDS011;20485;50.992;5.550;2023-03-01T06:46:07;27.13;;;14.25;;
33926;SDS011;20485;50.992;5.550;2023-03-01T06:48:33;26.23;;;14.07;;
33926;SDS011;20485;50.992;5.550;2023-03-01T06:51:00;34.80;;;14.98;;
33926;SDS011;20485;50.992;5.550;2023-03-01T06:53:32;26.15;;;14.82;;
33926;SDS011;20485;50.992;5.550;2023-03-01T06:55:58;29.45;;;13.75;;
33926;SDS011;20485;50.992;5.550;2023-03-01T06:58:25;25.88;;;14.48;;
33926;SDS011;20485;50.992;5.550;2023-03-01T07:00:51;27.33;;;14.60;;
33926;SDS011;20485;50.992;5.550;2023-03-01T07:03:17;25.52;;;14.10;;
33926;SDS011;20485;50.992;5.550;2023-03-01T07:05:42;22.52;;;13.18;;
33926;SDS011;20485;50.992;5.550;2023-03-01T07:08:10;23.92;;;13.43;;
33926;SDS011;20485;50.992;5.550;2023-03-01T07:10:35;26.10;;;14.00;;
33926;SDS011;20485;50.992;5.550;2023-03-01T07:13:01;24.58;;;13.50;;
33926;SDS011;20485;50.992;5.550;2023-03-01T07:15:27;22.42;;;13.30;;
33926;SDS011;20485;50.992;5.550;2023-03-01T07:17:53;28.10;;;14.00;;
33926;SDS011;20485;50.992;5.550;2023-03-01T07:20:19;25.20;;;14.75;;
33926;SDS011;20485;50.992;5.550;2023-03-01T07:22:50;34.28;;;15.63;;
33926;SDS011;20485;50.992;5.550;2023-03-01T07:25:16;39.83;;;16.52;;
33926;SDS011;20485;50.992;5.550;2023-03-01T07:27:42;31.10;;;15.75;;
33926;SDS011;20485;50.992;5.550;2023-03-01T07:30:08;30.60;;;15.50;;
33926;SDS011;20485;50.992;5.550;2023-03-01T07:32:34;32.95;;;16.30;;
33926;SDS011;20485;50.992;5.550;2023-03-01T07:35:00;29.38;;;16.25;;
33926;SDS011;20485;50.992;5.550;2023-03-01T07:37:26;31.77;;;14.63;;
33926;SDS011;20485;50.992;5.550;2023-03-01T07:39:51;28.35;;;15.35;;
33926;SDS011;20485;50.992;5.550;2023-03-01T07:42:17;27.10;;;15.30;;
33926;SDS011;20485;50.992;5.550;2023-03-01T07:44:43;27.30;;;14.98;;
33926;SDS011;20485;50.992;5.550;2023-03-01T07:47:08;27.52;;;13.82;;
33926;SDS011;20485;50.992;5.550;2023-03-01T07:49:34;26.13;;;14.52;;
33926;SDS011;20485;50.992;5.550;2023-03-01T07:51:59;30.55;;;14.85;;
33926;SDS011;20485;50.992;5.550;2023-03-01T07:54:25;25.75;;;13.45;;
33926;SDS011;20485;50.992;5.550;2023-03-01T07:56:51;32.60;;;14.70;;
33926;SDS011;20485;50.992;5.550;2023-03-01T07:59:17;26.40;;;14.80;;
33926;SDS011;20485;50.992;5.550;2023-03-01T08:02:01;33.05;;;14.75;;
33926;SDS011;20485;50.992;5.550;2023-03-01T08:04:26;23.00;;;13.80;;
33926;SDS011;20485;50.992;5.550;2023-03-01T08:06:53;25.83;;;13.10;;
33926;SDS011;20485;50.992;5.550;2023-03-01T08:09:19;27.60;;;12.38;;
33926;SDS011;20485;50.992;5.550;2023-03-01T08:11:45;22.55;;;12.90;;
33926;SDS011;20485;50.992;5.550;2023-03-01T08:14:11;21.33;;;12.73;;
33926;SDS011;20485;50.992;5.550;2023-03-01T08:16:38;22.30;;;12.52;;
33926;SDS011;20485;50.992;5.550;2023-03-01T08:19:08;24.77;;;12.73;;
33926;SDS011;20485;50.992;5.550;2023-03-01T08:21:35;22.23;;;12.00;;
33926;SDS011;20485;50.992;5.550;2023-03-01T08:24:02;20.45;;;12.20;;
33926;SDS011;20485;50.992;5.550;2023-03-01T08:26:28;24.70;;;12.48;;
33926;SDS011;20485;50.992;5.550;2023-03-01T08:28:54;25.10;;;12.75;;
33926;SDS011;20485;50.992;5.550;2023-03-01T08:33:48;22.50;;;12.65;;
33926;SDS011;20485;50.992;5.550;2023-03-01T08:36:19;22.83;;;12.02;;
33926;SDS011;20485;50.992;5.550;2023-03-01T08:38:48;23.05;;;12.80;;
33926;SDS011;20485;50.992;5.550;2023-03-01T08:41:14;19.38;;;10.73;;
33926;SDS011;20485;50.992;5.550;2023-03-01T08:43:40;22.10;;;11.70;;
33926;SDS011;20485;50.992;5.550;2023-03-01T08:46:06;24.55;;;12.88;;
33926;SDS011;20485;50.992;5.550;2023-03-01T08:48:31;22.30;;;11.73;;
33926;SDS011;20485;50.992;5.550;2023-03-01T08:51:06;21.63;;;11.95;;
33926;SDS011;20485;50.992;5.550;2023-03-01T08:53:33;23.50;;;12.73;;
33926;SDS011;20485;50.992;5.550;2023-03-01T08:56:02;24.63;;;12.65;;
33926;SDS011;20485;50.992;5.550;2023-03-01T08:58:28;24.38;;;12.68;;
33926;SDS011;20485;50.992;5.550;2023-03-01T09:00:54;20.98;;;11.43;;
33926;SDS011;20485;50.992;5.550;2023-03-01T09:03:21;25.45;;;12.40;;
33926;SDS011;20485;50.992;5.550;2023-03-01T09:05:48;27.02;;;12.32;;
33926;SDS011;20485;50.992;5.550;2023-03-01T09:08:15;23.98;;;12.70;;
33926;SDS011;20485;50.992;5.550;2023-03-01T09:10:41;23.13;;;12.50;;
33926;SDS011;20485;50.992;5.550;2023-03-01T09:13:07;22.65;;;10.68;;
33926;SDS011;20485;50.992;5.550;2023-03-01T09:15:33;21.38;;;12.75;;
33926;SDS011;20485;50.992;5.550;2023-03-01T09:17:59;24.50;;;11.65;;
33926;SDS011;20485;50.992;5.550;2023-03-01T09:20:25;18.05;;;10.90;;
33926;SDS011;20485;50.992;5.550;2023-03-01T09:22:50;29.88;;;11.35;;
33926;SDS011;20485;50.992;5.550;2023-03-01T09:25:16;21.15;;;12.30;;
33926;SDS011;20485;50.992;5.550;2023-03-01T09:27:42;18.33;;;10.73;;
33926;SDS011;20485;50.992;5.550;2023-03-01T09:30:07;23.85;;;12.30;;
33926;SDS011;20485;50.992;5.550;2023-03-01T09:32:34;27.23;;;10.85;;
33926;SDS011;20485;50.992;5.550;2023-03-01T09:34:59;23.33;;;11.07;;
33926;SDS011;20485;50.992;5.550;2023-03-01T09:37:34;24.05;;;11.20;;
33926;SDS011;20485;50.992;5.550;2023-03-01T09:40:03;20.95;;;10.68;;
33926;SDS011;20485;50.992;5.550;2023-03-01T09:42:31;23.35;;;11.68;;
33926;SDS011;20485;50.992;5.550;2023-03-01T09:45:05;22.38;;;12.23;;
33926;SDS011;20485;50.992;5.550;2023-03-01T09:47:36;22.58;;;11.27;;
33926;SDS011;20485;50.992;5.550;2023-03-01T09:52:46;22.55;;;12.65;;
33926;SDS011;20485;50.992;5.550;2023-03-01T10:00:50;21.10;;;10.98;;
33926;SDS011;20485;50.992;5.550;2023-03-01T10:03:26;23.40;;;10.32;;
33926;SDS011;20485;50.992;5.550;2023-03-01T10:11:20;14.90;;;7.30;;
33926;SDS011;20485;50.992;5.550;2023-03-01T10:19:24;24.55;;;11.27;;
33926;SDS011;20485;50.992;5.550;2023-03-01T10:21:57;22.45;;;12.25;;
33926;SDS011;20485;50.992;5.550;2023-03-01T10:24:29;22.15;;;10.30;;
33926;SDS011;20485;50.992;5.550;2023-03-01T10:27:08;19.90;;;10.15;;
33926;SDS011;20485;50.992;5.550;2023-03-01T10:29:46;24.15;;;11.73;;
33926;SDS011;20485;50.992;5.550;2023-03-01T10:32:15;24.95;;;11.93;;
33926;SDS011;20485;50.992;5.550;2023-03-01T10:34:43;30.23;;;12.60;;
33926;SDS011;20485;50.992;5.550;2023-03-01T10:37:16;23.63;;;11.27;;
33926;SDS011;20485;50.992;5.550;2023-03-01T10:39:57;19.35;;;10.80;;
33926;SDS011;20485;50.992;5.550;2023-03-01T10:42:33;21.00;;;11.68;;
33926;SDS011;20485;50.992;5.550;2023-03-01T10:47:53;19.92;;;11.02;;
33926;SDS011;20485;50.992;5.550;2023-03-01T10:50:37;21.48;;;11.18;;
33926;SDS011;20485;50.992;5.550;2023-03-01T10:53:05;21.00;;;11.38;;
33926;SDS011;20485;50.992;5.550;2023-03-01T10:55:45;18.45;;;11.05;;
33926;SDS011;20485;50.992;5.550;2023-03-01T11:03:13;19.45;;;10.07;;
33926;SDS011;20485;50.992;5.550;2023-03-01T11:05:53;26.60;;;11.63;;
33926;SDS011;20485;50.992;5.550;2023-03-01T11:08:32;19.52;;;11.35;;
33926;SDS011;20485;50.992;5.550;2023-03-01T11:11:07;23.88;;;13.30;;
33926;SDS011;20485;50.992;5.550;2023-03-01T11:13:38;22.25;;;10.05;;
33926;SDS011;20485;50.992;5.550;2023-03-01T11:16:25;22.80;;;11.50;;
33926;SDS011;20485;50.992;5.550;2023-03-01T11:19:03;15.77;;;9.48;;
33926;SDS011;20485;50.992;5.550;2023-03-01T11:21:44;25.90;;;11.13;;
33926;SDS011;20485;50.992;5.550;2023-03-01T11:24:43;19.58;;;10.75;;
33926;SDS011;20485;50.992;5.550;2023-03-01T11:27:16;19.85;;;10.73;;
33926;SDS011;20485;50.992;5.550;2023-03-01T11:29:46;21.25;;;10.68;;
33926;SDS011;20485;50.992;5.550;2023-03-01T11:32:23;22.13;;;9.65;;
33926;SDS011;20485;50.992;5.550;2023-03-01T11:37:59;20.92;;;11.00;;
33926;SDS011;20485;50.992;5.550;2023-03-01T11:40:39;20.30;;;11.32;;
33926;SDS011;20485;50.992;5.550;2023-03-01T12:00:36;21.45;;;10.20;;
33926;SDS011;20485;50.992;5.550;2023-03-01T12:08:44;18.35;;;9.80;;
33926;SDS011;20485;50.992;5.550;2023-03-01T12:11:21;18.50;;;10.27;;
33926;SDS011;20485;50.992;5.550;2023-03-01T12:14:00;20.35;;;11.10;;
33926;SDS011;20485;50.992;5.550;2023-03-01T12:19:32;20.42;;;10.27;;
33926;SDS011;20485;50.992;5.550;2023-03-01T12:22:39;18.52;;;10.60;;
33926;SDS011;20485;50.992;5.550;2023-03-01T12:30:53;15.87;;;9.30;;
33926;SDS011;20485;50.992;5.550;2023-03-01T12:36:52;26.52;;;9.13;;
33926;SDS011;20485;50.992;5.550;2023-03-01T12:39:32;16.85;;;9.68;;
33926;SDS011;20485;50.992;5.550;2023-03-01T12:42:22;15.85;;;8.15;;
33926;SDS011;20485;50.992;5.550;2023-03-01T12:50:49;16.70;;;9.10;;
33926;SDS011;20485;50.992;5.550;2023-03-01T12:53:25;18.95;;;9.48;;
33926;SDS011;20485;50.992;5.550;2023-03-01T12:55:54;19.35;;;9.43;;
33926;SDS011;20485;50.992;5.550;2023-03-01T12:58:34;19.83;;;10.20;;
33926;SDS011;20485;50.992;5.550;2023-03-01T13:01:19;18.67;;;9.68;;
33926;SDS011;20485;50.992;5.550;2023-03-01T13:04:07;16.42;;;9.50;;
33926;SDS011;20485;50.992;5.550;2023-03-01T13:09:51;13.23;;;7.45;;
33926;SDS011;20485;50.992;5.550;2023-03-01T13:17:47;12.82;;;6.65;;
33926;SDS011;20485;50.992;5.550;2023-03-01T13:20:23;16.33;;;8.23;;
33926;SDS011;20485;50.992;5.550;2023-03-01T13:23:07;16.75;;;8.02;;
33926;SDS011;20485;50.992;5.550;2023-03-01T13:30:57;15.45;;;8.82;;
33926;SDS011;20485;50.992;5.550;2023-03-01T13:35:56;18.52;;;9.63;;
33926;SDS011;20485;50.992;5.550;2023-03-01T13:41:12;17.33;;;9.10;;
33926;SDS011;20485;50.992;5.550;2023-03-01T13:43:41;20.00;;;8.98;;
33926;SDS011;20485;50.992;5.550;2023-03-01T13:46:10;15.18;;;7.70;;
33926;SDS011;20485;50.992;5.550;2023-03-01T13:48:43;17.65;;;9.15;;
33926;SDS011;20485;50.992;5.550;2023-03-01T13:51:20;19.05;;;9.23;;
33926;SDS011;20485;50.992;5.550;2023-03-01T13:53:50;17.52;;;8.68;;
33926;SDS011;20485;50.992;5.550;2023-03-01T13:56:17;15.98;;;7.80;;
33926;SDS011;20485;50.992;5.550;2023-03-01T13:58:58;14.93;;;8.35;;
33926;SDS011;20485;50.992;5.550;2023-03-01T14:01:34;13.52;;;8.57;;
33926;SDS011;20485;50.992;5.550;2023-03-01T14:04:26;14.52;;;7.70;;
33926;SDS011;20485;50.992;5.550;2023-03-01T14:07:10;19.25;;;9.35;;
33926;SDS011;20485;50.992;5.550;2023-03-01T14:09:39;17.90;;;8.50;;
33926;SDS011;20485;50.992;5.550;2023-03-01T14:15:15;17.25;;;9.13;;
33926;SDS011;20485;50.992;5.550;2023-03-01T14:17:51;15.85;;;8.75;;
33926;SDS011;20485;50.992;5.550;2023-03-01T14:20:30;14.13;;;8.25;;
33926;SDS011;20485;50.992;5.550;2023-03-01T14:23:01;20.60;;;7.35;;
33926;SDS011;20485;50.992;5.550;2023-03-01T14:25:34;17.75;;;8.13;;
33926;SDS011;20485;50.992;5.550;2023-03-01T14:30:46;19.20;;;7.35;;
33926;SDS011;20485;50.992;5.550;2023-03-01T14:38:39;16.30;;;7.85;;
33926;SDS011;20485;50.992;5.550;2023-03-01T14:41:11;13.55;;;7.03;;
33926;SDS011;20485;50.992;5.550;2023-03-01T14:43:47;17.23;;;7.07;;
33926;SDS011;20485;50.992;5.550;2023-03-01T14:46:20;16.60;;;7.43;;
33926;SDS011;20485;50.992;5.550;2023-03-01T14:51:35;13.57;;;6.78;;
33926;SDS011;20485;50.992;5.550;2023-03-01T14:54:40;13.98;;;7.28;;
33926;SDS011;20485;50.992;5.550;2023-03-01T14:57:14;15.35;;;8.00;;
33926;SDS011;20485;50.992;5.550;2023-03-01T14:59:40;15.55;;;7.35;;
33926;SDS011;20485;50.992;5.550;2023-03-01T15:02:08;12.80;;;6.88;;
33926;SDS011;20485;50.992;5.550;2023-03-01T15:04:42;12.98;;;7.18;;
33926;SDS011;20485;50.992;5.550;2023-03-01T15:07:12;17.48;;;8.40;;
33926;SDS011;20485;50.992;5.550;2023-03-01T15:09:39;16.45;;;7.72;;
33926;SDS011;20485;50.992;5.550;2023-03-01T15:15:06;16.70;;;7.03;;
33926;SDS011;20485;50.992;5.550;2023-03-01T15:17:54;23.55;;;12.13;;
33926;SDS011;20485;50.992;5.550;2023-03-01T15:20:24;16.13;;;7.72;;
33926;SDS011;20485;50.992;5.550;2023-03-01T15:22:52;19.45;;;6.90;;
33926;SDS011;20485;50.992;5.550;2023-03-01T15:25:23;14.20;;;6.13;;
33926;SDS011;20485;50.992;5.550;2023-03-01T15:27:52;17.50;;;7.30;;
33926;SDS011;20485;50.992;5.550;2023-03-01T15:30:22;10.98;;;5.07;;
33926;SDS011;20485;50.992;5.550;2023-03-01T15:35:52;10.52;;;6.10;;
33926;SDS011;20485;50.992;5.550;2023-03-01T15:38:34;10.05;;;5.32;;
33926;SDS011;20485;50.992;5.550;2023-03-01T15:41:26;10.07;;;5.43;;
33926;SDS011;20485;50.992;5.550;2023-03-01T15:43:57;10.77;;;5.88;;
33926;SDS011;20485;50.992;5.550;2023-03-01T15:48:57;10.82;;;5.72;;
33926;SDS011;20485;50.992;5.550;2023-03-01T15:51:32;12.55;;;5.70;;
33926;SDS011;20485;50.992;5.550;2023-03-01T15:54:06;12.98;;;5.75;;
33926;SDS011;20485;50.992;5.550;2023-03-01T15:56:42;12.73;;;6.03;;
33926;SDS011;20485;50.992;5.550;2023-03-01T15:59:09;15.88;;;5.90;;
33926;SDS011;20485;50.992;5.550;2023-03-01T16:01:43;12.25;;;5.85;;
33926;SDS011;20485;50.992;5.550;2023-03-01T16:04:12;12.00;;;5.63;;
33926;SDS011;20485;50.992;5.550;2023-03-01T16:06:45;19.52;;;9.73;;
33926;SDS011;20485;50.992;5.550;2023-03-01T16:09:18;13.77;;;6.18;;
33926;SDS011;20485;50.992;5.550;2023-03-01T16:11:44;11.52;;;7.20;;
33926;SDS011;20485;50.992;5.550;2023-03-01T16:14:10;10.48;;;6.22;;
33926;SDS011;20485;50.992;5.550;2023-03-01T16:16:35;9.07;;;5.25;;
33926;SDS011;20485;50.992;5.550;2023-03-01T16:19:01;10.10;;;5.60;;
33926;SDS011;20485;50.992;5.550;2023-03-01T16:21:27;10.75;;;5.32;;
33926;SDS011;20485;50.992;5.550;2023-03-01T16:23:53;15.75;;;5.88;;
33926;SDS011;20485;50.992;5.550;2023-03-01T16:26:18;11.55;;;5.90;;
33926;SDS011;20485;50.992;5.550;2023-03-01T16:28:44;9.77;;;6.03;;
33926;SDS011;20485;50.992;5.550;2023-03-01T16:31:11;10.75;;;5.68;;
33926;SDS011;20485;50.992;5.550;2023-03-01T16:33:39;13.07;;;6.05;;
33926;SDS011;20485;50.992;5.550;2023-03-01T16:36:11;10.75;;;5.40;;
33926;SDS011;20485;50.992;5.550;2023-03-01T16:38:37;11.13;;;6.35;;
33926;SDS011;20485;50.992;5.550;2023-03-01T16:41:03;10.73;;;5.85;;
33926;SDS011;20485;50.992;5.550;2023-03-01T16:43:30;13.77;;;6.13;;
33926;SDS011;20485;50.992;5.550;2023-03-01T16:46:04;12.75;;;5.93;;